Naniwa Maru No.21 — JG5648 — position and weather

sailwx.info

Track history (hours):
 
Tides and Currents Weather Stations Pressure Air Temp Water Temp Dewpoint Dewpoint Depression Visibility Wind Speed Wind Dir Waves Ship Positions

Naniwa Maru No.21

Last reported at 2017-May-28 00:14 UTC. Time now 2017-May-28 18:19 UTC.
Position N 34°08' E 135°07'.

Length 71 m; draft 4.2 m.

Type: Tanker. MMSI: 431301595.

Date/timePositionNaut miles runAvg speedWind from/ knotsBaromVisibWave heightAir tempDewpointWater temp
2017-May-28 00:14N 34°08' E 135°07'2711.6
2017-May-27 21:56N 34°34' E 135°03'510.6
2017-May-27 21:30N 34°37' E 134°58'  
2017-May-25 04:26N 34°08' E 135°07'0 0.5
2017-May-25 03:41N 34°08' E 135°07'0 0.0
2017-May-25 03:29N 34°08' E 135°07'0 0.0
2017-May-25 01:53N 34°08' E 135°07'0 0.0
2017-May-25 01:29N 34°08' E 135°07'0 0.1
2017-May-25 00:59N 34°08' E 135°07'0 0.1
2017-May-25 00:26N 34°08' E 135°07'0 0.0
2017-May-24 23:11N 34°08' E 135°07'0 0.0
2017-May-24 22:59N 34°08' E 135°07'0 0.1
2017-May-24 22:29N 34°08' E 135°07'0 0.0
2017-May-24 21:56N 34°08' E 135°07'0 0.1
2017-May-24 21:17N 34°08' E 135°07'2 5.0
2017-May-24 20:57N 34°09' E 135°06'613.3
2017-May-24 20:29N 34°14' E 135°00'2012.7
2017-May-24 18:54N 34°34' E 135°03'410.2
2017-May-24 18:28N 34°37' E 134°59'  
2017-May-21 13:20N 34°35' E 135°04'411.6
2017-May-21 13:00N 34°32' E 135°05'712.9
2017-May-21 12:30N 34°25' E 135°03'613.0
2017-May-21 12:00N 34°19' E 135°00'611.6
2017-May-21 11:30N 34°14' E 135°02'7 0.5
2017-May-20 22:49N 34°07' E 135°02'  
2017-May-18 09:20N 34°36' E 135°04'411.3
2017-May-18 08:59N 34°32' E 135°05'24 3.3
2017-May-18 01:31N 34°07' E 135°08'1 1.5
2017-May-18 01:09N 34°08' E 135°07'1 3.5
2017-May-18 01:01N 34°08' E 135°06'  
Track history (hours):
 
Tides and Currents Weather Stations Pressure Air Temp Water Temp Dewpoint Dewpoint Depression Visibility Wind Speed Wind Dir Waves Ship Positions

Naniwa Maru No.21

Last reported at 2017-May-28 00:14 UTC. Time now 2017-May-28 18:19 UTC.
Position N 34°08' E 135°07'.

Length 71 m; draft 4.2 m.

Type: Tanker. MMSI: 431301595.

Date/timePositionNaut miles runAvg speedWind from/ knotsBaromVisibWave heightAir tempDewpointWater temp
2017-May-28 00:14N 34°08' E 135°07'2711.6
2017-May-27 21:56N 34°34' E 135°03'510.6
2017-May-27 21:30N 34°37' E 134°58'  
2017-May-25 04:26N 34°08' E 135°07'0 0.5
2017-May-25 03:41N 34°08' E 135°07'0 0.0
2017-May-25 03:29N 34°08' E 135°07'0 0.0
2017-May-25 01:53N 34°08' E 135°07'0 0.0
2017-May-25 01:29N 34°08' E 135°07'0 0.1
2017-May-25 00:59N 34°08' E 135°07'0 0.1
2017-May-25 00:26N 34°08' E 135°07'0 0.0
2017-May-24 23:11N 34°08' E 135°07'0 0.0
2017-May-24 22:59N 34°08' E 135°07'0 0.1
2017-May-24 22:29N 34°08' E 135°07'0 0.0
2017-May-24 21:56N 34°08' E 135°07'0 0.1
2017-May-24 21:17N 34°08' E 135°07'2 5.0
2017-May-24 20:57N 34°09' E 135°06'613.3
2017-May-24 20:29N 34°14' E 135°00'2012.7
2017-May-24 18:54N 34°34' E 135°03'410.2
2017-May-24 18:28N 34°37' E 134°59'  
2017-May-21 13:20N 34°35' E 135°04'411.6
2017-May-21 13:00N 34°32' E 135°05'712.9
2017-May-21 12:30N 34°25' E 135°03'613.0
2017-May-21 12:00N 34°19' E 135°00'611.6
2017-May-21 11:30N 34°14' E 135°02'7 0.5
2017-May-20 22:49N 34°07' E 135°02'  
2017-May-18 09:20N 34°36' E 135°04'411.3
2017-May-18 08:59N 34°32' E 135°05'24 3.3
2017-May-18 01:31N 34°07' E 135°08'1 1.5
2017-May-18 01:09N 34°08' E 135°07'1 3.5
2017-May-18 01:01N 34°08' E 135°06'  

Dump ship's entire track history